Time;durP1;ratioP1;P1;durP2;ratioP2;P2;SDS_P1;SDS_P2;PMS_P1;PMS_P2;Temp;Humidity;BMP_temperature;BMP_pressure;BME280_temperature;BME280_humidity;BME280_pressure;Samples;Min_cycle;Max_cycle;Signal;HPM_P1;HPM_P2
2022/03/17 00:00:54;;;;;;;10.05;4.80;;;6.50;99.90;;;;;;5087070;28;20083;-56
2022/03/17 00:03:22;;;;;;;7.68;4.63;;;6.50;99.90;;;;;;5090427;28;20048;-57
2022/03/17 00:05:49;;;;;;;9.38;5.05;;;6.50;99.90;;;;;;5090481;28;20607;-58
2022/03/17 00:08:16;;;;;;;15.35;7.20;;;6.50;99.90;;;;;;5090772;28;20037;-58
2022/03/17 00:10:43;;;;;;;6.07;4.47;;;6.50;99.90;;;;;;5091160;28;20462;-58
2022/03/17 00:13:11;;;;;;;7.65;4.40;;;6.50;99.90;;;;;;5082589;28;20078;-54
2022/03/17 00:15:40;;;;;;;8.27;5.65;;;6.50;99.90;;;;;;5072654;28;20082;-56
2022/03/17 00:18:07;;;;;;;7.85;5.30;;;6.50;99.90;;;;;;5072544;28;20101;-57
2022/03/17 00:20:34;;;;;;;8.43;4.95;;;6.40;99.90;;;;;;5090963;28;20052;-56
2022/03/17 00:23:01;;;;;;;10.48;5.95;;;6.40;99.90;;;;;;5071915;28;20040;-54
2022/03/17 00:25:29;;;;;;;7.13;4.90;;;6.40;99.90;;;;;;5090178;28;20044;-58
2022/03/17 00:27:57;;;;;;;7.75;5.82;;;6.30;99.90;;;;;;5072924;28;21044;-58
2022/03/17 00:30:24;;;;;;;8.18;4.97;;;6.30;99.90;;;;;;5071782;28;20048;-56
2022/03/17 00:32:51;;;;;;;6.75;4.57;;;6.30;99.90;;;;;;5090337;28;20128;-57
2022/03/17 00:35:38;;;;;;;9.98;4.97;;;6.40;99.90;;;;;;5089701;28;20066;-57
2022/03/17 00:38:07;;;;;;;10.52;4.72;;;6.30;99.90;;;;;;5090160;28;20127;-58
2022/03/17 00:40:35;;;;;;;8.38;4.22;;;6.30;99.90;;;;;;5089908;28;20066;-55
2022/03/17 00:43:06;;;;;;;12.65;5.28;;;6.30;99.90;;;;;;5090333;28;20461;-58
2022/03/17 00:45:33;;;;;;;9.38;4.78;;;6.30;99.90;;;;;;5089298;28;20056;-57
2022/03/17 00:47:59;;;;;;;7.78;4.13;;;6.30;99.90;;;;;;5090666;28;20084;-56
2022/03/17 00:50:26;;;;;;;4.85;3.75;;;6.30;99.90;;;;;;5089829;28;20048;-58
2022/03/17 00:52:53;;;;;;;9.32;4.13;;;6.20;99.90;;;;;;5089859;28;20094;-57
2022/03/17 00:55:21;;;;;;;12.38;4.28;;;6.20;99.90;;;;;;5090108;28;20048;-57
2022/03/17 00:57:48;;;;;;;6.90;3.65;;;6.20;99.90;;;;;;5089673;28;20052;-56
2022/03/17 01:00:16;;;;;;;12.13;5.10;;;6.20;99.90;;;;;;5089593;28;20082;-58
2022/03/17 01:02:43;;;;;;;7.28;3.47;;;6.20;99.90;;;;;;5089815;28;20044;-57
2022/03/17 01:05:10;;;;;;;11.25;3.83;;;6.30;99.90;;;;;;5088011;28;20522;-59
2022/03/17 01:07:37;;;;;;;9.55;3.53;;;6.20;99.90;;;;;;5089806;28;20040;-57
2022/03/17 01:10:05;;;;;;;6.13;4.18;;;6.20;99.90;;;;;;5089105;28;20044;-56
2022/03/17 01:12:32;;;;;;;8.88;2.90;;;6.20;99.90;;;;;;5090358;28;20119;-58
2022/03/17 01:14:59;;;;;;;7.00;2.67;;;6.20;99.90;;;;;;5089350;28;20102;-57
2022/03/17 01:17:26;;;;;;;4.90;2.53;;;6.20;99.90;;;;;;5089732;28;20572;-58
2022/03/17 01:19:53;;;;;;;9.13;4.55;;;6.20;99.90;;;;;;4737424;28;10000412;-57
2022/03/17 01:22:23;;;;;;;7.38;3.05;;;6.10;99.90;;;;;;5086295;28;20085;-57
2022/03/17 01:24:51;;;;;;;10.55;2.88;;;6.10;99.90;;;;;;5088284;28;20047;-54
2022/03/17 01:27:23;;;;;;;7.85;2.40;;;6.10;99.90;;;;;;5089155;28;20101;-56
2022/03/17 01:29:50;;;;;;;7.45;2.45;;;6.10;99.90;;;;;;5089643;28;20052;-55
2022/03/17 01:32:17;;;;;;;4.75;2.45;;;6.00;99.90;;;;;;5089096;28;20048;-55
2022/03/17 01:34:44;;;;;;;7.72;3.08;;;6.00;99.90;;;;;;5088883;28;20363;-56
2022/03/17 01:37:10;;;;;;;10.75;4.00;;;6.00;99.90;;;;;;5070775;28;20044;-54
2022/03/17 01:39:37;;;;;;;4.47;2.22;;;6.00;99.90;;;;;;5071176;28;20085;-54
2022/03/17 01:42:09;;;;;;;4.80;2.35;;;6.00;99.90;;;;;;5050611;28;20068;-56
2022/03/17 01:44:36;;;;;;;6.10;1.83;;;6.10;99.90;;;;;;5087365;28;20048;-55
2022/03/17 01:49:49;;;;;;;9.40;2.70;;;6.00;99.90;;;;;;5089001;28;20102;-57
2022/03/17 01:52:16;;;;;;;11.85;2.70;;;6.00;99.90;;;;;;5088303;28;20083;-54
2022/03/17 01:54:43;;;;;;;6.68;1.60;;;6.10;99.90;;;;;;5070648;28;20498;-57
2022/03/17 01:57:10;;;;;;;4.90;1.73;;;6.00;99.90;;;;;;5087916;28;20490;-57
2022/03/17 01:59:38;;;;;;;4.93;1.73;;;6.00;99.90;;;;;;5070997;28;20089;-60
2022/03/17 02:02:12;;;;;;;6.28;1.80;;;5.90;99.90;;;;;;5070263;28;20056;-57
2022/03/17 02:04:41;;;;;;;5.00;1.67;;;6.00;99.90;;;;;;5088179;28;20052;-58
2022/03/17 02:07:08;;;;;;;16.55;1.95;;;6.00;99.90;;;;;;5088143;28;20083;-58
2022/03/17 02:09:36;;;;;;;6.20;1.60;;;5.90;99.90;;;;;;5088411;28;20044;-57
2022/03/17 02:14:59;;;;;;;8.68;1.45;;;5.90;99.90;;;;;;5086586;28;20399;-56
2022/03/17 02:17:30;;;;;;;4.60;1.75;;;5.80;99.90;;;;;;5087857;28;20101;-57
2022/03/17 02:19:58;;;;;;;8.25;1.40;;;5.70;99.90;;;;;;5088326;28;20046;-56
2022/03/17 02:22:25;;;;;;;12.43;1.50;;;5.60;99.90;;;;;;5087866;28;20556;-55
2022/03/17 02:27:41;;;;;;;3.40;1.30;;;5.60;99.90;;;;;;5087677;28;20067;-57
2022/03/17 02:30:09;;;;;;;6.22;1.40;;;5.50;99.90;;;;;;5087994;28;20056;-56
2022/03/17 02:32:36;;;;;;;11.13;2.15;;;5.50;99.90;;;;;;5088151;28;20408;-58
2022/03/17 02:35:11;;;;;;;7.90;2.22;;;5.50;99.90;;;;;;5087911;28;20133;-57
2022/03/17 02:37:38;;;;;;;6.25;2.00;;;5.50;99.90;;;;;;5069937;28;20048;-57
2022/03/17 02:40:07;;;;;;;6.72;1.55;;;5.40;99.90;;;;;;5087670;28;20074;-57
2022/03/17 02:42:34;;;;;;;6.25;1.52;;;5.40;99.90;;;;;;5087854;28;20063;-57
2022/03/17 02:45:01;;;;;;;5.80;2.15;;;5.30;99.90;;;;;;5070119;28;20226;-57
2022/03/17 02:47:28;;;;;;;6.55;1.73;;;5.30;99.90;;;;;;5087747;28;20064;-57
2022/03/17 02:49:55;;;;;;;4.72;1.33;;;5.30;99.90;;;;;;5087699;28;20048;-58
2022/03/17 02:52:23;;;;;;;8.32;1.70;;;5.30;99.90;;;;;;5087927;28;20044;-58
2022/03/17 02:54:50;;;;;;;4.75;1.17;;;5.20;99.90;;;;;;5087039;28;20083;-59
2022/03/17 02:57:17;;;;;;;6.78;1.67;;;5.20;99.90;;;;;;5087920;28;20491;-57
2022/03/17 02:59:44;;;;;;;10.60;1.58;;;5.20;99.90;;;;;;5087260;28;20036;-56
2022/03/17 03:02:11;;;;;;;6.00;1.58;;;5.20;99.90;;;;;;5086232;28;20072;-55
2022/03/17 03:04:38;;;;;;;4.47;1.05;;;5.10;99.90;;;;;;5071435;28;20062;-55
2022/03/17 03:07:06;;;;;;;5.30;1.40;;;5.10;99.90;;;;;;5070578;28;20074;-57
2022/03/17 03:09:33;;;;;;;4.88;2.17;;;5.10;99.90;;;;;;5087219;28;20047;-57
2022/03/17 03:12:00;;;;;;;6.22;1.70;;;5.10;99.90;;;;;;5087482;28;20479;-57
2022/03/17 03:14:28;;;;;;;6.88;1.65;;;5.00;99.90;;;;;;5087462;28;20378;-57
2022/03/17 03:16:55;;;;;;;5.68;1.80;;;5.00;99.90;;;;;;5069784;28;20055;-58
2022/03/17 03:19:22;;;;;;;8.70;1.67;;;5.00;99.90;;;;;;5086925;28;20047;-57
2022/03/17 03:21:48;;;;;;;4.65;1.77;;;5.00;99.90;;;;;;5087538;28;20108;-56
2022/03/17 03:24:15;;;;;;;4.85;1.77;;;5.00;99.90;;;;;;5084508;28;20384;-58
2022/03/17 03:26:43;;;;;;;10.82;1.58;;;4.90;99.90;;;;;;5086936;28;20080;-57
2022/03/17 03:29:22;;;;;;;3.30;1.27;;;4.80;99.90;;;;;;5088540;28;20105;-56
2022/03/17 03:31:53;;;;;;;11.23;1.52;;;4.90;99.90;;;;;;5088880;28;20087;-57
2022/03/17 03:34:20;;;;;;;8.90;2.97;;;4.80;99.90;;;;;;5091215;28;20071;-58
2022/03/17 03:39:33;;;;;;;6.93;1.65;;;4.70;99.90;;;;;;5090876;28;20086;-58
2022/03/17 03:42:01;;;;;;;9.15;1.83;;;4.70;99.90;;;;;;5087800;28;20059;-58
2022/03/17 03:44:27;;;;;;;2.85;1.35;;;4.70;99.90;;;;;;5091252;28;20104;-57
2022/03/17 03:46:54;;;;;;;7.75;1.80;;;4.70;99.90;;;;;;5090618;28;20545;-57
2022/03/17 03:49:21;;;;;;;8.68;1.48;;;4.60;99.90;;;;;;5091379;28;20051;-56
2022/03/17 03:51:48;;;;;;;4.05;2.42;;;4.60;99.90;;;;;;5089351;28;20090;-57
2022/03/17 03:54:18;;;;;;;7.13;1.73;;;4.60;99.90;;;;;;5073021;28;20056;-58
2022/03/17 03:56:50;;;;;;;8.60;2.17;;;4.50;99.90;;;;;;5090873;28;20140;-55
2022/03/17 03:59:21;;;;;;;10.13;1.60;;;4.50;99.90;;;;;;5090692;28;20120;-58
2022/03/17 04:01:49;;;;;;;3.85;1.45;;;4.50;99.90;;;;;;5090635;28;20105;-55
2022/03/17 04:04:19;;;;;;;7.00;1.92;;;4.40;99.90;;;;;;5071944;28;20044;-56
2022/03/17 04:06:48;;;;;;;3.75;1.23;;;4.40;99.90;;;;;;5087060;28;20079;-54
2022/03/17 04:09:16;;;;;;;5.75;2.15;;;4.40;99.90;;;;;;5090911;28;20483;-57
2022/03/17 04:11:43;;;;;;;7.65;1.80;;;4.40;99.90;;;;;;5090387;28;20102;-57
2022/03/17 04:14:10;;;;;;;7.07;2.20;;;4.30;99.90;;;;;;5091124;28;20040;-59
2022/03/17 04:16:37;;;;;;;6.68;2.08;;;4.40;99.90;;;;;;5090237;28;20516;-56
2022/03/17 04:19:04;;;;;;;9.00;2.28;;;4.30;99.90;;;;;;5091132;28;20036;-58
2022/03/17 04:21:31;;;;;;;7.53;1.80;;;4.40;99.90;;;;;;5090334;28;20117;-58
2022/03/17 04:23:58;;;;;;;8.60;2.70;;;4.40;99.90;;;;;;5090456;28;20052;-57
2022/03/17 04:26:25;;;;;;;5.70;1.95;;;4.30;99.90;;;;;;5090230;28;20185;-57
2022/03/17 04:28:52;;;;;;;5.05;1.50;;;4.30;99.90;;;;;;5072488;28;20090;-57
2022/03/17 04:31:20;;;;;;;6.85;1.65;;;4.40;99.90;;;;;;5072116;28;20075;-55
2022/03/17 04:33:48;;;;;;;7.32;1.50;;;4.30;99.90;;;;;;5090318;28;20495;-58
2022/03/17 04:36:15;;;;;;;10.65;2.55;;;4.30;99.90;;;;;;5089981;28;20044;-58
2022/03/17 04:38:42;;;;;;;11.60;1.95;;;4.30;99.90;;;;;;5089915;28;20086;-58
2022/03/17 04:41:10;;;;;;;7.40;1.58;;;4.20;99.90;;;;;;5090294;28;20189;-58
2022/03/17 04:43:37;;;;;;;10.18;1.70;;;4.10;99.90;;;;;;5089906;28;20118;-58
2022/03/17 04:46:04;;;;;;;3.53;1.30;;;4.10;99.90;;;;;;5072406;28;20102;-57
2022/03/17 04:48:31;;;;;;;4.03;1.48;;;4.10;99.90;;;;;;5071490;28;20043;-57
2022/03/17 04:50:58;;;;;;;9.52;3.22;;;4.20;99.90;;;;;;5090243;28;20036;-58
2022/03/17 04:53:27;;;;;;;3.63;1.25;;;4.10;99.90;;;;;;5089871;28;20068;-56
2022/03/17 04:55:55;;;;;;;5.70;1.50;;;4.40;99.90;;;;;;5089832;28;20076;-58
2022/03/17 04:58:22;;;;;;;12.00;1.63;;;4.00;99.90;;;;;;5089690;28;20047;-58
2022/03/17 05:00:49;;;;;;;9.65;1.85;;;3.90;99.90;;;;;;5089522;28;20078;-58
2022/03/17 05:03:16;;;;;;;3.63;1.98;;;3.90;99.90;;;;;;5089552;28;20078;-58
2022/03/17 05:05:42;;;;;;;6.97;1.35;;;3.90;99.90;;;;;;5089859;28;20221;-55
2022/03/17 05:08:09;;;;;;;6.38;2.00;;;3.90;99.90;;;;;;5088987;28;20101;-58
2022/03/17 05:10:36;;;;;;;6.70;1.60;;;3.80;99.90;;;;;;5089719;28;20513;-59
2022/03/17 05:13:07;;;;;;;5.15;1.38;;;3.90;99.90;;;;;;5089484;28;20384;-59
2022/03/17 05:15:34;;;;;;;5.03;1.67;;;3.80;99.90;;;;;;5081712;28;20059;-58
2022/03/17 05:18:01;;;;;;;3.10;1.38;;;3.80;99.90;;;;;;5089215;28;20075;-59
2022/03/17 05:20:28;;;;;;;9.52;1.55;;;3.90;99.90;;;;;;5089238;28;20067;-54
2022/03/17 05:22:55;;;;;;;8.88;1.75;;;3.80;99.90;;;;;;5089405;28;20039;-57
2022/03/17 05:25:22;;;;;;;4.53;1.67;;;3.90;99.90;;;;;;5089230;28;20074;-57
2022/03/17 05:27:51;;;;;;;3.38;1.88;;;3.80;99.90;;;;;;5088929;28;20044;-56
2022/03/17 05:30:19;;;;;;;2.92;1.40;;;3.80;99.90;;;;;;5071127;28;20056;-56
2022/03/17 05:32:46;;;;;;;5.15;1.25;;;3.90;99.90;;;;;;5088952;28;20478;-57
2022/03/17 05:35:14;;;;;;;5.57;1.58;;;3.80;99.90;;;;;;5088734;28;20044;-57
2022/03/17 05:37:41;;;;;;;5.63;1.50;;;3.80;99.90;;;;;;5070942;28;20098;-57
2022/03/17 05:40:17;;;;;;;9.32;1.70;;;3.80;99.90;;;;;;5088750;28;20093;-58
2022/03/17 05:42:46;;;;;;;9.57;2.33;;;3.80;99.90;;;;;;5089081;28;20488;-58
2022/03/17 05:45:13;;;;;;;3.30;1.30;;;3.80;99.90;;;;;;5088302;28;20051;-57
2022/03/17 05:47:42;;;;;;;4.32;1.80;;;3.90;99.90;;;;;;5088999;28;20220;-58
2022/03/17 05:50:10;;;;;;;3.10;1.23;;;3.80;99.90;;;;;;5087904;28;20530;-57
2022/03/17 05:52:38;;;;;;;4.25;1.17;;;3.80;99.90;;;;;;5088826;28;20050;-58
2022/03/17 05:55:07;;;;;;;7.68;1.63;;;3.80;99.90;;;;;;5087655;28;20036;-58
2022/03/17 05:57:34;;;;;;;5.90;1.20;;;3.80;99.90;;;;;;5070209;28;20079;-57
2022/03/17 06:00:01;;;;;;;8.95;2.25;;;3.80;99.90;;;;;;5088121;28;20494;-56
2022/03/17 06:02:28;;;;;;;3.75;1.40;;;3.80;99.90;;;;;;5070576;28;20319;-57
2022/03/17 06:04:55;;;;;;;4.65;1.45;;;3.80;99.90;;;;;;5070071;28;20482;-57
2022/03/17 06:07:21;;;;;;;10.85;3.45;;;3.70;99.90;;;;;;5087844;28;20079;-57
2022/03/17 06:09:48;;;;;;;6.53;2.90;;;3.70;99.90;;;;;;5088063;28;20044;-58
2022/03/17 06:12:15;;;;;;;6.70;1.42;;;3.70;99.90;;;;;;5088509;28;20453;-57
2022/03/17 06:14:42;;;;;;;7.05;1.58;;;3.70;99.90;;;;;;5087968;28;20040;-57
2022/03/17 06:17:11;;;;;;;5.45;1.50;;;3.70;99.90;;;;;;5087524;28;20048;-57
2022/03/17 06:19:38;;;;;;;7.32;1.30;;;3.60;99.90;;;;;;5088267;28;20260;-58
2022/03/17 06:22:05;;;;;;;5.22;1.50;;;3.60;99.90;;;;;;5087798;28;20050;-57
2022/03/17 06:24:32;;;;;;;3.83;1.30;;;3.60;99.90;;;;;;5087860;28;20089;-58
2022/03/17 06:26:59;;;;;;;6.50;1.70;;;3.60;99.90;;;;;;5086619;28;20082;-58
2022/03/17 06:29:26;;;;;;;5.00;1.38;;;3.60;99.90;;;;;;5069807;28;20151;-58
2022/03/17 06:31:52;;;;;;;3.13;1.70;;;3.60;99.90;;;;;;5088092;28;20048;-56
2022/03/17 06:34:19;;;;;;;5.32;2.00;;;3.70;99.90;;;;;;5087770;28;20040;-57
2022/03/17 06:36:46;;;;;;;5.07;1.77;;;3.70;99.90;;;;;;5086902;28;20044;-57
2022/03/17 06:39:13;;;;;;;5.80;2.50;;;3.70;99.90;;;;;;5088045;28;20044;-57
2022/03/17 06:41:40;;;;;;;11.23;3.25;;;3.80;99.90;;;;;;5087255;28;20117;-57
2022/03/17 06:44:06;;;;;;;4.82;2.08;;;3.80;99.90;;;;;;5082136;28;20073;-58
2022/03/17 06:46:33;;;;;;;6.60;1.67;;;3.80;99.90;;;;;;5086678;28;20048;-54
2022/03/17 06:49:00;;;;;;;11.75;1.77;;;3.80;99.90;;;;;;5087260;28;20044;-56
2022/03/17 06:51:27;;;;;;;6.70;2.42;;;3.80;99.90;;;;;;5086784;28;20044;-57
2022/03/17 06:53:54;;;;;;;2.97;1.27;;;3.90;99.90;;;;;;5086676;28;20040;-56
2022/03/17 06:56:20;;;;;;;6.07;1.60;;;3.90;99.90;;;;;;5086465;28;20078;-55
2022/03/17 06:58:47;;;;;;;7.90;1.75;;;4.00;99.90;;;;;;5087151;28;20079;-58
2022/03/17 07:01:14;;;;;;;8.00;1.90;;;4.00;99.90;;;;;;5086912;28;20058;-58
2022/03/17 07:03:41;;;;;;;14.20;2.08;;;4.10;99.90;;;;;;5085886;28;20051;-58
2022/03/17 07:06:08;;;;;;;12.60;3.60;;;4.20;99.90;;;;;;5086626;28;20044;-55
2022/03/17 07:08:35;;;;;;;4.07;1.63;;;4.20;99.90;;;;;;5086553;28;20080;-56
2022/03/17 07:11:02;;;;;;;6.18;1.23;;;4.20;99.90;;;;;;5069465;28;20136;-53
2022/03/17 07:13:28;;;;;;;9.75;2.15;;;4.30;99.90;;;;;;5086223;28;20093;-55
2022/03/17 07:15:55;;;;;;;9.45;1.98;;;4.30;99.90;;;;;;5086559;28;20051;-53
2022/03/17 07:18:22;;;;;;;7.75;1.65;;;4.40;99.90;;;;;;5086265;28;20050;-55
2022/03/17 07:20:50;;;;;;;4.97;1.63;;;4.50;99.90;;;;;;5087095;28;20048;-58
2022/03/17 07:23:17;;;;;;;5.90;1.63;;;4.50;99.90;;;;;;5082158;28;20048;-57
2022/03/17 07:25:47;;;;;;;7.30;1.52;;;4.50;99.90;;;;;;5086833;28;20051;-56
2022/03/17 07:28:15;;;;;;;7.18;1.92;;;4.50;99.90;;;;;;5086018;28;20055;-57
2022/03/17 07:30:42;;;;;;;10.80;1.77;;;4.60;99.90;;;;;;5086870;28;20079;-57
2022/03/17 07:33:09;;;;;;;7.03;1.77;;;4.60;99.90;;;;;;5085124;28;20048;-60
2022/03/17 07:35:35;;;;;;;6.50;1.92;;;4.60;99.90;;;;;;5067658;28;20811;-60
2022/03/17 07:38:03;;;;;;;6.75;1.52;;;4.70;99.90;;;;;;5085610;28;20074;-58
2022/03/17 07:40:31;;;;;;;7.97;1.80;;;4.70;99.90;;;;;;5086059;28;20356;-58
2022/03/17 07:42:58;;;;;;;4.93;1.60;;;4.80;99.90;;;;;;5085564;28;20143;-59
2022/03/17 07:45:25;;;;;;;10.82;3.25;;;4.90;99.90;;;;;;5051480;28;20044;-60
2022/03/17 07:47:52;;;;;;;10.02;1.90;;;4.90;99.90;;;;;;5086058;28;20135;-56
2022/03/17 07:50:19;;;;;;;11.73;2.03;;;4.90;99.90;;;;;;5086026;28;20048;-57
2022/03/17 07:52:46;;;;;;;5.32;2.00;;;5.00;99.90;;;;;;5086009;28;20048;-53
2022/03/17 07:55:13;;;;;;;8.82;2.70;;;5.00;99.90;;;;;;5084184;28;20047;-56
2022/03/17 07:57:40;;;;;;;11.10;2.58;;;5.10;99.90;;;;;;5084355;28;20035;-56
2022/03/17 08:00:08;;;;;;;9.60;2.00;;;5.20;99.90;;;;;;5083981;28;20048;-57
2022/03/17 08:02:34;;;;;;;3.20;1.50;;;5.20;99.90;;;;;;5084511;28;20044;-58
2022/03/17 08:05:02;;;;;;;8.63;1.58;;;5.30;99.90;;;;;;5083832;28;20074;-56
2022/03/17 08:07:29;;;;;;;9.57;1.73;;;5.30;99.90;;;;;;5065649;28;20052;-58
2022/03/17 08:09:57;;;;;;;5.90;1.65;;;5.40;99.90;;;;;;5082607;28;20052;-57
2022/03/17 08:12:26;;;;;;;8.13;1.70;;;5.50;99.90;;;;;;5068527;28;20070;-59
2022/03/17 08:14:53;;;;;;;4.85;1.35;;;5.50;99.90;;;;;;5070268;28;20044;-56
2022/03/17 08:17:20;;;;;;;10.57;1.60;;;5.60;99.90;;;;;;5089656;28;20060;-53
2022/03/17 08:19:47;;;;;;;10.30;1.77;;;5.70;99.90;;;;;;5089417;28;20048;-53
2022/03/17 08:22:14;;;;;;;8.15;1.40;;;5.80;99.90;;;;;;5089969;28;20073;-56
2022/03/17 08:24:41;;;;;;;4.57;1.70;;;5.80;99.90;;;;;;5089214;28;20043;-57
2022/03/17 08:27:08;;;;;;;4.82;1.50;;;5.90;99.90;;;;;;5088778;28;20048;-53
2022/03/17 08:29:40;;;;;;;11.32;1.52;;;6.10;99.90;;;;;;5089025;28;20080;-55
2022/03/17 08:32:07;;;;;;;9.32;2.03;;;6.00;99.90;;;;;;5089480;28;20475;-57
2022/03/17 08:34:34;;;;;;;11.38;1.67;;;6.10;99.90;;;;;;5089003;28;20048;-57
2022/03/17 08:37:01;;;;;;;6.72;1.48;;;6.20;99.90;;;;;;5070409;28;20052;-57
2022/03/17 08:39:28;;;;;;;11.45;1.60;;;6.30;99.90;;;;;;5087684;28;20052;-57
2022/03/17 08:41:56;;;;;;;8.27;1.70;;;6.30;99.90;;;;;;5087687;28;20080;-57
2022/03/17 08:44:23;;;;;;;14.85;1.67;;;6.40;99.90;;;;;;5087565;28;20105;-57
2022/03/17 08:49:35;;;;;;;7.32;1.67;;;6.60;99.90;;;;;;5087627;28;20039;-56
2022/03/17 08:52:03;;;;;;;11.23;1.95;;;6.60;99.90;;;;;;5087942;28;20044;-57
2022/03/17 08:54:31;;;;;;;16.73;2.90;;;6.70;99.90;;;;;;5087648;28;20043;-57
2022/03/17 08:57:01;;;;;;;16.10;2.67;;;6.80;99.90;;;;;;5086968;28;20079;-55
2022/03/17 08:59:30;;;;;;;12.48;2.05;;;6.90;99.90;;;;;;5069680;28;20072;-56
2022/03/17 09:02:00;;;;;;;20.23;2.45;;;7.00;99.90;;;;;;5087330;28;20082;-56
2022/03/17 09:04:28;;;;;;;9.15;2.22;;;7.10;99.90;;;;;;5069964;28;20135;-56
2022/03/17 09:06:59;;;;;;;7.95;2.03;;;7.30;99.90;;;;;;5087835;28;20493;-58
2022/03/17 09:09:36;;;;;;;6.20;2.17;;;7.30;99.90;;;;;;5069575;28;20392;-56
2022/03/17 09:12:07;;;;;;;10.25;2.13;;;7.40;99.90;;;;;;5088820;28;20048;-56
2022/03/17 09:14:34;;;;;;;9.20;1.90;;;7.50;99.90;;;;;;5087388;28;20044;-57
2022/03/17 09:17:01;;;;;;;15.13;4.20;;;7.80;99.90;;;;;;5088738;28;20086;-54
2022/03/17 09:19:28;;;;;;;7.50;1.58;;;8.20;99.90;;;;;;5087224;28;20044;-56
2022/03/17 09:21:56;;;;;;;12.00;2.13;;;8.40;99.90;;;;;;5089149;28;20070;-55
2022/03/17 09:24:23;;;;;;;8.10;2.17;;;8.80;99.90;;;;;;5088997;28;20055;-57
2022/03/17 09:26:50;;;;;;;8.93;1.50;;;9.10;99.90;;;;;;5087755;28;20457;-57
2022/03/17 09:29:17;;;;;;;5.95;1.70;;;9.30;99.80;;;;;;5088958;28;20139;-57
2022/03/17 09:31:44;;;;;;;5.38;1.83;;;9.40;99.90;;;;;;5088746;28;20040;-54
2022/03/17 09:34:12;;;;;;;8.88;1.48;;;9.70;99.90;;;;;;5071566;28;20172;-55
2022/03/17 09:36:39;;;;;;;8.07;1.98;;;9.80;99.60;;;;;;5070469;28;20097;-57
2022/03/17 09:41:52;;;;;;;10.10;2.30;;;10.00;99.20;;;;;;5087680;28;20044;-56
2022/03/17 09:44:19;;;;;;;7.88;1.48;;;9.80;98.30;;;;;;5070919;28;20040;-56
2022/03/17 09:46:47;;;;;;;10.00;1.90;;;9.40;96.10;;;;;;5088207;28;20094;-55
2022/03/17 09:49:14;;;;;;;13.63;3.60;;;9.30;99.50;;;;;;5067631;28;20048;-58
2022/03/17 09:51:42;;;;;;;10.95;2.33;;;9.30;99.50;;;;;;5070772;28;20072;-58
2022/03/17 09:54:10;;;;;;;7.38;2.03;;;9.20;99.30;;;;;;5070772;28;20040;-58
2022/03/17 09:56:37;;;;;;;11.35;1.55;;;9.30;98.50;;;;;;5070471;28;20047;-55
2022/03/17 09:59:06;;;;;;;9.20;1.55;;;9.30;97.70;;;;;;5088012;28;20080;-57
2022/03/17 10:01:33;;;;;;;6.80;1.73;;;9.30;96.70;;;;;;5070547;28;20097;-60
2022/03/17 10:04:02;;;;;;;9.38;1.60;;;9.30;95.10;;;;;;5053164;28;20082;-57
2022/03/17 10:06:29;;;;;;;7.07;1.83;;;9.30;97.30;;;;;;5087857;28;20050;-55
2022/03/17 10:08:56;;;;;;;12.10;2.47;;;9.30;98.70;;;;;;5088304;28;20196;-57
2022/03/17 10:11:37;;;;;;;7.20;1.77;;;9.40;98.30;;;;;;5070335;28;20052;-54
2022/03/17 10:14:05;;;;;;;6.90;1.65;;;9.40;95.50;;;;;;5070053;28;20048;-57
2022/03/17 10:16:33;;;;;;;6.78;1.42;;;9.40;97.70;;;;;;5055767;28;20071;-58
2022/03/17 10:19:12;;;;;;;6.25;1.50;;;9.50;94.80;;;;;;5088109;28;20055;-55
2022/03/17 10:21:41;;;;;;;7.40;1.85;;;9.50;94.80;;;;;;5084926;28;20075;-55
2022/03/17 10:24:08;;;;;;;13.07;1.52;;;9.60;96.80;;;;;;5069541;28;20043;-55
2022/03/17 10:26:41;;;;;;;7.10;1.83;;;9.60;95.80;;;;;;5087817;28;20134;-58
2022/03/17 10:29:26;;;;;;;5.03;1.58;;;9.60;97.30;;;;;;5087366;28;20576;-58
2022/03/17 10:32:06;;;;;;;14.98;2.00;;;9.60;96.90;;;;;;5084057;28;20044;-56
2022/03/17 10:34:48;;;;;;;3.70;1.20;;;9.70;96.60;;;;;;5087058;28;20138;-56
2022/03/17 10:37:16;;;;;;;10.43;1.42;;;9.80;96.20;;;;;;5087453;28;20566;-57
2022/03/17 10:39:46;;;;;;;10.30;1.75;;;9.90;97.90;;;;;;5087042;28;20048;-55
2022/03/17 10:42:15;;;;;;;6.97;1.40;;;9.90;96.70;;;;;;5088147;28;20044;-55
2022/03/17 10:44:48;;;;;;;5.43;1.48;;;10.00;97.10;;;;;;5069586;28;20532;-57
2022/03/17 10:47:26;;;;;;;7.53;1.80;;;10.00;95.90;;;;;;5087987;28;20040;-54
2022/03/17 10:50:06;;;;;;;7.82;2.38;;;10.00;93.90;;;;;;5087539;28;20052;-57
2022/03/17 10:52:57;;;;;;;7.93;1.95;;;10.10;95.50;;;;;;5087874;28;20040;-56
2022/03/17 10:55:26;;;;;;;9.15;1.75;;;10.10;92.90;;;;;;5083788;28;20048;-53
2022/03/17 10:57:55;;;;;;;4.00;1.15;;;10.20;94.40;;;;;;5069140;28;20556;-56
2022/03/17 11:00:27;;;;;;;8.38;1.38;;;10.30;95.00;;;;;;5087413;28;20044;-54
2022/03/17 11:02:58;;;;;;;8.25;2.08;;;10.30;94.00;;;;;;5087484;28;20047;-55
2022/03/17 11:05:29;;;;;;;5.70;1.52;;;10.40;93.70;;;;;;5087450;28;20051;-57
2022/03/17 11:07:57;;;;;;;9.88;1.27;;;10.40;95.30;;;;;;5087162;28;20670;-58
2022/03/17 11:10:25;;;;;;;10.77;1.35;;;10.50;90.30;;;;;;5087176;28;20126;-58
2022/03/17 11:12:52;;;;;;;7.03;1.52;;;10.50;93.70;;;;;;5087676;28;20055;-56
2022/03/17 11:15:29;;;;;;;14.60;5.15;;;10.50;93.10;;;;;;5087145;28;20106;-59
2022/03/17 11:18:06;;;;;;;2.88;1.13;;;10.60;91.90;;;;;;5050443;28;20049;-57
2022/03/17 11:20:33;;;;;;;10.70;2.55;;;10.60;90.60;;;;;;5069150;28;20474;-57
2022/03/17 11:23:15;;;;;;;4.75;1.35;;;10.60;91.90;;;;;;5087265;28;20044;-57
2022/03/17 11:25:51;;;;;;;5.40;1.55;;;10.70;90.40;;;;;;5087358;28;20044;-57
2022/03/17 11:28:18;;;;;;;7.07;1.70;;;10.80;92.80;;;;;;5069153;28;20056;-58
2022/03/17 11:30:46;;;;;;;6.68;2.30;;;10.80;92.60;;;;;;5053046;28;20068;-54
2022/03/17 11:33:34;;;;;;;5.95;1.13;;;10.80;91.90;;;;;;5087248;28;20051;-57
2022/03/17 11:36:10;;;;;;;9.07;1.80;;;10.90;91.40;;;;;;5086717;28;20071;-57
2022/03/17 11:38:38;;;;;;;9.98;1.20;;;10.90;92.40;;;;;;5062892;28;20040;-57
2022/03/17 11:41:12;;;;;;;11.38;1.58;;;11.10;93.10;;;;;;5086504;28;20448;-54
2022/03/17 11:44:02;;;;;;;6.55;1.17;;;11.10;93.50;;;;;;5087298;28;20050;-58
2022/03/17 11:46:39;;;;;;;3.63;1.25;;;11.10;88.70;;;;;;5074253;28;20040;-57
2022/03/17 11:49:21;;;;;;;8.00;1.55;;;11.10;92.00;;;;;;5088192;28;20079;-58
2022/03/17 11:52:01;;;;;;;8.48;1.77;;;11.20;91.30;;;;;;5085092;28;20426;-56
2022/03/17 11:54:29;;;;;;;6.75;1.30;;;11.20;91.50;;;;;;5073031;28;20058;-56
2022/03/17 11:57:00;;;;;;;2.58;1.13;;;11.30;92.10;;;;;;5090737;28;20044;-56
2022/03/17 11:59:46;;;;;;;9.30;2.25;;;11.30;90.80;;;;;;5072413;28;20432;-57
2022/03/17 12:02:15;;;;;;;7.13;2.13;;;11.30;93.00;;;;;;5090527;28;20080;-57
2022/03/17 12:04:49;;;;;;;5.63;1.60;;;11.40;93.30;;;;;;5090924;28;20109;-56
2022/03/17 12:07:18;;;;;;;7.55;1.40;;;11.40;93.10;;;;;;5089817;28;20123;-57
2022/03/17 12:09:45;;;;;;;7.50;1.73;;;11.50;94.70;;;;;;5090904;28;20047;-58
2022/03/17 12:12:29;;;;;;;12.60;1.83;;;11.60;93.50;;;;;;5090664;28;20075;-56
2022/03/17 12:15:00;;;;;;;6.88;2.00;;;11.50;92.60;;;;;;5072970;28;20063;-57
2022/03/17 12:17:27;;;;;;;9.05;1.58;;;11.50;93.70;;;;;;5090024;28;20044;-56
2022/03/17 12:20:09;;;;;;;10.75;2.13;;;11.50;93.90;;;;;;5090641;28;20044;-57
2022/03/17 12:22:44;;;;;;;5.90;1.85;;;11.60;92.10;;;;;;5090203;28;20093;-57
2022/03/17 12:25:23;;;;;;;5.45;1.52;;;11.70;93.10;;;;;;5090334;28;20077;-55
2022/03/17 12:27:55;;;;;;;6.63;1.95;;;11.80;91.70;;;;;;5090464;28;20112;-58
2022/03/17 12:30:24;;;;;;;6.88;1.92;;;11.90;93.00;;;;;;5090245;28;20052;-58
2022/03/17 12:32:55;;;;;;;5.43;1.98;;;11.90;93.30;;;;;;5089681;28;20051;-55
2022/03/17 12:35:26;;;;;;;11.40;3.08;;;12.00;93.20;;;;;;5090231;28;20044;-54
2022/03/17 12:38:02;;;;;;;8.95;1.60;;;12.00;92.50;;;;;;5071563;28;20328;-60
2022/03/17 12:40:46;;;;;;;9.45;1.60;;;12.10;93.40;;;;;;5087142;28;20071;-58
2022/03/17 12:43:17;;;;;;;6.72;1.85;;;12.30;92.60;;;;;;5090198;28;20090;-56
2022/03/17 12:45:45;;;;;;;6.32;1.63;;;12.40;93.40;;;;;;5089851;28;20044;-57
2022/03/17 12:48:12;;;;;;;8.45;1.63;;;12.60;93.00;;;;;;5071557;28;20063;-56
2022/03/17 12:50:38;;;;;;;11.73;1.60;;;12.60;93.50;;;;;;5071772;28;20501;-58
2022/03/17 12:53:05;;;;;;;8.57;1.48;;;12.60;92.40;;;;;;5089134;28;20047;-56
2022/03/17 12:55:32;;;;;;;8.00;1.23;;;12.60;93.50;;;;;;5089787;28;20085;-57
2022/03/17 12:58:01;;;;;;;4.20;1.17;;;12.50;91.20;;;;;;5089064;28;20170;-59
2022/03/17 13:00:28;;;;;;;7.00;2.13;;;12.40;92.80;;;;;;5088720;28;20071;-58
2022/03/17 13:02:56;;;;;;;8.18;1.50;;;12.50;93.40;;;;;;5089335;28;20048;-59
2022/03/17 13:08:11;;;;;;;2.15;1.00;;;12.70;90.90;;;;;;5089521;28;20043;-57
2022/03/17 13:16:11;;;;;;;4.65;1.17;;;12.60;87.90;;;;;;5089741;28;20093;-55
2022/03/17 13:18:43;;;;;;;9.07;1.45;;;12.70;91.80;;;;;;5088691;28;20048;-55
2022/03/17 13:21:11;;;;;;;5.57;1.20;;;12.80;87.40;;;;;;5088639;28;20047;-56
2022/03/17 13:23:38;;;;;;;5.82;1.30;;;12.90;90.70;;;;;;5070785;28;20040;-55
2022/03/17 13:26:04;;;;;;;5.63;1.50;;;13.00;87.50;;;;;;5087543;28;20075;-57